Terminal Aerodrome Forecast
Issued by NWS

Current Version | Previous Version | Text Only | Print | Product List | Glossary On
Versions: 1 2 3 4 5 6 7 8 9 10 11 12 13 14 15 16 17 18 19 20 21 22 23 24 25 26 27 28 29
000
FTUS45 KGJT 270546
TAFDRO
TAF
KDRO 270546Z 2706/2806 04003KT P6SM SCT060 OVC080
     FM271400 13005KT P6SM BKN060
     FM272000 23015G25KT P6SM VCSH OVC060
     FM280200 24008KT 3SM -SHSN OVC025=

USA.gov is the U.S. government's official web portal to all federal, state and local government web resources and services.